createdAt,value
2018-07-02T00:00:16.478Z,32.1
2018-07-02T00:01:12.383Z,32.2
2018-07-02T00:02:16.360Z,32.2
2018-07-02T00:03:17.363Z,32.2
2018-07-02T00:04:13.083Z,32.2
2018-07-02T00:05:10.564Z,32.3
2018-07-02T00:06:08.836Z,32.3
2018-07-02T00:07:09.050Z,32.3
2018-07-02T00:08:07.953Z,32.3
2018-07-02T00:09:15.067Z,32.4
2018-07-02T00:10:19.535Z,32.4
2018-07-02T00:11:17.192Z,32.5
2018-07-02T00:12:19.466Z,32.5
2018-07-02T00:13:17.153Z,32.5
2018-07-02T00:14:16.783Z,32.5
2018-07-02T00:15:21.541Z,32.6
2018-07-02T00:16:19.353Z,32.6
2018-07-02T00:17:21.123Z,32.6
2018-07-02T00:18:30.044Z,32.7
2018-07-02T00:19:27.971Z,32.7
2018-07-02T00:20:40.138Z,32.7
2018-07-02T00:21:32.049Z,32.7
2018-07-02T00:22:34.149Z,32.7
2018-07-02T00:23:34.242Z,32.7
2018-07-02T00:24:37.377Z,32.7
2018-07-02T00:25:35.683Z,32.7
2018-07-02T00:26:34.980Z,32.7
2018-07-02T00:27:32.454Z,32.7
2018-07-02T00:28:33.774Z,32.7
2018-07-02T00:29:40.758Z,32.7
2018-07-02T00:30:40.226Z,32.8
2018-07-02T00:31:41.788Z,32.7
2018-07-02T00:32:39.833Z,32.8
2018-07-02T00:33:42.471Z,32.8
2018-07-02T00:34:41.651Z,32.8
2018-07-02T00:35:41.991Z,32.8
2018-07-02T00:36:39.426Z,32.8
2018-07-02T00:37:37.710Z,32.8
2018-07-02T00:38:36.387Z,32.8
2018-07-02T00:39:39.927Z,32.8
2018-07-02T00:40:44.903Z,32.8
2018-07-02T00:41:44.097Z,32.8
2018-07-02T00:42:43.052Z,32.9
2018-07-02T00:43:59.819Z,32.8
2018-07-02T00:44:51.593Z,32.9
2018-07-02T00:45:51.167Z,32.9
2018-07-02T00:46:51.654Z,32.9
2018-07-02T00:47:51.510Z,32.9
2018-07-02T00:48:50.699Z,32.9
2018-07-02T00:49:48.835Z,32.9
2018-07-02T00:50:47.292Z,32.9
2018-07-02T00:51:47.311Z,32.9
2018-07-02T00:52:45.364Z,32.9
2018-07-02T00:53:50.330Z,32.9
2018-07-02T00:54:50.360Z,32.9
2018-07-02T00:55:51.117Z,32.9
2018-07-02T00:56:48.437Z,33
2018-07-02T00:57:49.675Z,33
2018-07-02T00:58:53.779Z,33.1
2018-07-02T00:59:53.273Z,33.1
2018-07-02T01:01:02.183Z,33.1
2018-07-02T01:02:05.319Z,33.1
2018-07-02T01:03:03.757Z,33.1
2018-07-02T01:04:04.127Z,33.1
2018-07-02T01:04:59.522Z,33.1
2018-07-02T01:05:57.663Z,33.1
2018-07-02T01:06:57.580Z,33.1
2018-07-02T01:08:23.610Z,33.2
2018-07-02T01:09:23.280Z,33.3
2018-07-02T01:10:22.229Z,33.2
2018-07-02T01:11:20.677Z,33.3
2018-07-02T01:12:19.294Z,33.3
2018-07-02T01:13:17.121Z,33.3
2018-07-02T01:14:15.037Z,33.3
2018-07-02T01:15:27.127Z,33.3
2018-07-02T01:16:22.439Z,33.3
2018-07-02T01:17:22.588Z,33.3
2018-07-02T01:18:27.753Z,33.3
2018-07-02T01:19:25.120Z,33.3
2018-07-02T01:20:22.502Z,33.4
2018-07-02T01:21:21.957Z,33.4
2018-07-02T01:22:28.124Z,33.4
2018-07-02T01:23:00.234Z,33.4
2018-07-02T01:24:07.138Z,33.5
2018-07-02T01:25:07.385Z,33.4
2018-07-02T01:26:06.239Z,33.5
2018-07-02T01:27:07.643Z,33.5
2018-07-02T01:28:17.992Z,33.5
2018-07-02T01:29:15.873Z,33.5
2018-07-02T01:30:16.572Z,33.6
2018-07-02T01:31:14.612Z,33.6
2018-07-02T01:32:18.469Z,33.6
2018-07-02T01:33:17.573Z,33.6
2018-07-02T01:34:15.305Z,33.6
2018-07-02T01:35:16.656Z,33.6
2018-07-02T01:36:17.875Z,33.6
2018-07-02T01:37:18.607Z,33.6
2018-07-02T01:38:16.762Z,33.6
2018-07-02T01:39:35.422Z,33.7
2018-07-02T01:40:33.717Z,33.7
2018-07-02T01:41:28.987Z,33.8
2018-07-02T01:42:27.810Z,33.8
2018-07-02T01:43:27.594Z,33.7
2018-07-02T01:44:29.114Z,33.8
2018-07-02T01:45:26.905Z,33.8
2018-07-02T01:46:26.130Z,33.8
2018-07-02T01:47:28.279Z,33.8
2018-07-02T01:48:26.851Z,33.8
2018-07-02T01:49:26.229Z,33.8
2018-07-02T01:50:28.686Z,33.8
2018-07-02T01:51:27.254Z,33.8
2018-07-02T01:52:24.613Z,33.8
2018-07-02T01:53:25.737Z,33.8
2018-07-02T01:54:25.469Z,33.9
2018-07-02T01:55:41.549Z,33.9
2018-07-02T01:56:37.500Z,33.9
2018-07-02T01:57:38.351Z,33.9
2018-07-02T01:58:37.945Z,33.9
2018-07-02T01:59:41.105Z,33.9
2018-07-02T02:00:45.807Z,34
2018-07-02T02:01:44.586Z,33.9
2018-07-02T02:02:42.664Z,34
2018-07-02T02:03:45.369Z,34
2018-07-02T02:04:43.718Z,34
2018-07-02T02:05:48.732Z,34
2018-07-02T02:06:52.659Z,34
2018-07-02T02:07:54.532Z,34
2018-07-02T02:08:57.371Z,34
2018-07-02T02:09:55.099Z,34
2018-07-02T02:11:07.775Z,34.1
2018-07-02T02:12:04.637Z,34.1
2018-07-02T02:13:07.167Z,34.1
2018-07-02T02:14:06.766Z,34.1
2018-07-02T02:15:06.220Z,34.1
2018-07-02T02:16:09.092Z,34.1
2018-07-02T02:17:09.048Z,34.1
2018-07-02T02:18:06.650Z,34.1
2018-07-02T02:19:05.103Z,34.1
2018-07-02T02:20:04.104Z,34.1
2018-07-02T02:21:05.371Z,34.1
2018-07-02T02:22:10.203Z,34.2
2018-07-02T02:23:08.261Z,34.2
2018-07-02T02:24:09.322Z,34.2
2018-07-02T02:25:07.892Z,34.2
2018-07-02T02:26:13.203Z,34.2
2018-07-02T02:27:15.940Z,34.2
2018-07-02T02:28:18.548Z,34.3
2018-07-02T02:29:30.375Z,34.2
2018-07-02T02:30:23.613Z,34.3
2018-07-02T02:31:23.382Z,34.3
2018-07-02T02:32:23.026Z,34.3
2018-07-02T02:33:29.069Z,34.3
2018-07-02T02:34:35.732Z,34.3
2018-07-02T02:35:39.055Z,34.3
2018-07-02T02:36:36.942Z,34.3
2018-07-02T02:37:40.581Z,34.3
2018-07-02T02:38:44.981Z,34.3
2018-07-02T02:39:44.670Z,34.4
2018-07-02T02:40:44.575Z,34.4
2018-07-02T02:41:46.529Z,34.4
2018-07-02T02:42:56.964Z,34.4
2018-07-02T02:43:54.450Z,34.4
2018-07-02T02:44:53.236Z,34.4
2018-07-02T02:45:55.600Z,34.4
2018-07-02T02:47:07.755Z,34.4
2018-07-02T02:48:01.310Z,34.5
2018-07-02T02:49:02.530Z,34.5
2018-07-02T02:50:03.303Z,34.5
2018-07-02T02:51:01.284Z,34.5
2018-07-02T02:51:59.944Z,34.5
2018-07-02T02:53:02.981Z,34.5
2018-07-02T02:54:07.004Z,34.3
2018-07-02T02:55:07.827Z,34.5
2018-07-02T02:56:06.002Z,34.5
2018-07-02T02:57:05.225Z,34.5
2018-07-02T02:58:11.599Z,34.6
2018-07-02T02:59:09.903Z,34.6
2018-07-02T03:00:08.727Z,34.6
2018-07-02T03:01:06.403Z,34.6
2018-07-02T03:02:05.121Z,34.6
2018-07-02T03:03:03.907Z,34.7
2018-07-02T03:04:16.197Z,34.6
2018-07-02T03:05:09.609Z,34.7
2018-07-02T03:06:12.096Z,34.6
2018-07-02T03:07:10.227Z,34.6
2018-07-02T03:08:07.655Z,34.6
2018-07-02T03:09:11.999Z,34.5
2018-07-02T03:10:20.096Z,34.7
2018-07-02T03:11:17.748Z,34.6
2018-07-02T03:12:16.681Z,34.7
2018-07-02T03:13:23.868Z,34.7
2018-07-02T03:14:25.443Z,34.8
2018-07-02T03:15:28.204Z,34.7
2018-07-02T03:16:25.667Z,34.8
2018-07-02T03:17:24.000Z,34.8
2018-07-02T03:18:27.249Z,34.8
2018-07-02T03:19:28.190Z,34.8
2018-07-02T03:20:32.069Z,34.7
2018-07-02T03:21:34.635Z,34.7
2018-07-02T03:22:36.971Z,34.8
2018-07-02T03:23:38.194Z,34.8
2018-07-02T03:24:50.409Z,34.8
2018-07-02T03:25:46.054Z,34.8
2018-07-02T03:26:46.296Z,34.8
2018-07-02T03:27:54.460Z,34.8
2018-07-02T03:29:05.206Z,34.8
2018-07-02T03:30:05.207Z,34.8
2018-07-02T03:31:04.179Z,34.8
2018-07-02T03:32:07.351Z,34.8
2018-07-02T03:33:02.895Z,34.8
2018-07-02T03:34:02.447Z,34.8
2018-07-02T03:35:07.053Z,34.8
2018-07-02T03:36:05.419Z,34.8
2018-07-02T03:37:05.623Z,34.9
2018-07-02T03:38:20.357Z,34.9
2018-07-02T03:39:14.857Z,34.7
2018-07-02T03:40:12.736Z,34.9
2018-07-02T03:41:19.116Z,34.8
2018-07-02T03:42:21.100Z,34.9
2018-07-02T03:43:17.448Z,34.9
2018-07-02T03:44:15.128Z,34.8
2018-07-02T03:45:14.220Z,34.8
2018-07-02T03:46:13.598Z,34.9
2018-07-02T03:47:17.823Z,34.9
2018-07-02T03:48:17.589Z,34.9
2018-07-02T03:49:18.638Z,34.9
2018-07-02T03:50:37.810Z,34.9
2018-07-02T03:51:40.840Z,34.9
2018-07-02T03:52:37.670Z,35
2018-07-02T03:53:38.671Z,35
2018-07-02T03:54:33.828Z,34.9
2018-07-02T03:55:42.350Z,34.9
2018-07-02T03:56:45.112Z,34.9
2018-07-02T03:57:45.124Z,34.8
2018-07-02T03:58:47.737Z,34.9
2018-07-02T03:59:47.146Z,34.9
2018-07-02T04:00:59.256Z,34.9
2018-07-02T04:01:58.765Z,34.9
2018-07-02T04:02:54.718Z,35
2018-07-02T04:03:52.898Z,34.9
2018-07-02T04:04:52.494Z,35
2018-07-02T04:05:51.687Z,34.9
2018-07-02T04:06:53.794Z,35
2018-07-02T04:07:53.248Z,35
2018-07-02T04:08:52.546Z,34.9
2018-07-02T04:09:56.522Z,34.9
2018-07-02T04:10:57.170Z,34.9
2018-07-02T04:12:08.570Z,34.9
2018-07-02T04:13:04.763Z,34.9
2018-07-02T04:14:02.437Z,34.9
2018-07-02T04:15:03.559Z,34.9
2018-07-02T04:16:00.366Z,34.9
2018-07-02T04:17:02.215Z,34.9
2018-07-02T04:18:01.725Z,34.9
2018-07-02T04:19:09.490Z,34.9
2018-07-02T04:20:08.168Z,34.9
2018-07-02T04:21:04.805Z,34.9
2018-07-02T04:22:04.763Z,35
2018-07-02T04:23:05.797Z,35
2018-07-02T04:24:01.450Z,34.9
2018-07-02T04:25:01.321Z,34.9
2018-07-02T04:26:00.444Z,34.9
2018-07-02T04:27:16.179Z,34.9
2018-07-02T04:28:20.109Z,34.9
2018-07-02T04:29:15.115Z,34.9
2018-07-02T04:30:20.399Z,34.9
2018-07-02T04:31:19.015Z,34.9
2018-07-02T04:32:19.168Z,35
2018-07-02T04:33:16.823Z,35
2018-07-02T04:34:18.457Z,35
2018-07-02T04:35:14.825Z,35
2018-07-02T04:36:15.666Z,35
2018-07-02T04:37:16.022Z,35
2018-07-02T04:38:14.846Z,35
2018-07-02T04:39:26.187Z,35.2
2018-07-02T04:40:24.173Z,35
2018-07-02T04:41:22.084Z,35.1
2018-07-02T04:42:20.108Z,35.2
2018-07-02T04:43:23.579Z,35.1
2018-07-02T04:44:22.785Z,35.1
2018-07-02T04:45:20.172Z,35.1
2018-07-02T04:46:21.232Z,35.1
2018-07-02T04:47:19.821Z,35.1
2018-07-02T04:48:17.078Z,35.2
2018-07-02T04:49:15.447Z,35.1
2018-07-02T04:50:20.132Z,35.2
2018-07-02T04:51:28.828Z,35.2
2018-07-02T04:52:26.492Z,35.2
2018-07-02T04:53:23.719Z,35.2
2018-07-02T04:54:35.543Z,35.4
2018-07-02T04:55:27.921Z,35.3
2018-07-02T04:56:29.133Z,35.2
2018-07-02T04:57:28.198Z,35.3
2018-07-02T04:58:26.267Z,35.2
2018-07-02T04:59:31.146Z,35.3
2018-07-02T05:00:29.536Z,35.3
2018-07-02T05:01:27.477Z,35.3
2018-07-02T05:02:25.560Z,35.3
2018-07-02T05:03:23.744Z,35.3
2018-07-02T05:04:25.648Z,35.3
2018-07-02T05:05:25.943Z,35.3
2018-07-02T05:06:21.165Z,35.4
2018-07-02T05:07:19.224Z,35.3
2018-07-02T05:08:20.976Z,35.3
2018-07-02T05:09:24.966Z,35.5
2018-07-02T05:10:24.231Z,35.4
2018-07-02T05:11:42.012Z,35.4
2018-07-02T05:12:36.209Z,35.4
2018-07-02T05:13:39.349Z,35.4
2018-07-02T05:14:41.959Z,35.4
2018-07-02T05:15:49.192Z,35.5
2018-07-02T05:16:49.436Z,35.5
2018-07-02T05:17:49.364Z,35.4
2018-07-02T05:18:50.284Z,35.4
2018-07-02T05:19:53.465Z,35.4
2018-07-02T05:20:48.097Z,35.5
2018-07-02T05:21:49.201Z,35.5
2018-07-02T05:22:45.564Z,35.5
2018-07-02T05:23:46.988Z,35.5
2018-07-02T05:24:52.073Z,35.5
2018-07-02T05:25:51.937Z,35.5
2018-07-02T05:27:04.462Z,35.6
2018-07-02T05:28:00.183Z,35.6
2018-07-02T05:28:58.220Z,35.6
2018-07-02T05:29:53.123Z,35.6
2018-07-02T05:30:56.710Z,35.6
2018-07-02T05:32:00.399Z,35.6
2018-07-02T05:33:02.714Z,35.6
2018-07-02T05:34:01.366Z,35.6
2018-07-02T05:35:00.199Z,35.7
2018-07-02T05:35:57.955Z,35.7
2018-07-02T05:37:08.632Z,35.7
2018-07-02T05:38:08.463Z,35.7
2018-07-02T05:39:07.163Z,35.7
2018-07-02T05:40:09.504Z,35.7
2018-07-02T05:41:04.356Z,35.7
2018-07-02T05:42:11.543Z,35.7
2018-07-02T05:43:09.210Z,35.8
2018-07-02T05:44:21.070Z,35.8
2018-07-02T05:45:23.481Z,35.8
2018-07-02T05:46:17.208Z,35.8
2018-07-02T05:47:13.001Z,35.8
2018-07-02T05:48:14.376Z,35.7
2018-07-02T05:49:16.922Z,35.7
2018-07-02T05:50:19.729Z,35.7
2018-07-02T05:51:17.871Z,35.7
2018-07-02T05:52:19.710Z,35.7
2018-07-02T05:53:27.797Z,35.7
2018-07-02T05:54:25.490Z,35.9
2018-07-02T05:55:26.452Z,35.6
2018-07-02T05:56:25.591Z,35.6
2018-07-02T05:57:40.488Z,32.9
2018-07-02T05:58:37.722Z,31.7
2018-07-02T05:59:34.277Z,31.8
2018-07-02T06:00:32.470Z,31.8
2018-07-02T06:01:27.871Z,32.7
2018-07-02T06:02:27.387Z,32.6
2018-07-02T06:03:26.453Z,33.5
2018-07-02T06:04:26.594Z,33.7
2018-07-02T06:05:25.956Z,34.1
2018-07-02T06:06:24.211Z,34.5
2018-07-02T06:07:28.069Z,34.4
2018-07-02T06:08:30.435Z,34.1
2018-07-02T06:09:36.245Z,34.6
2018-07-02T06:10:36.716Z,34.6
2018-07-02T06:11:37.265Z,34.3
2018-07-02T06:12:34.474Z,33.9
2018-07-02T06:13:35.826Z,34.3
2018-07-02T06:14:33.829Z,34.2
2018-07-02T06:15:43.414Z,33.5
2018-07-02T06:16:44.344Z,34.2
2018-07-02T06:17:42.039Z,34.4
2018-07-02T06:18:37.186Z,33.8
2018-07-02T06:19:40.112Z,33.9
2018-07-02T06:20:35.894Z,34.4
2018-07-02T06:21:33.687Z,34.6
2018-07-02T06:22:35.991Z,34.8
2018-07-02T06:23:34.565Z,34.8
2018-07-02T06:24:33.751Z,34.7
2018-07-02T06:25:31.162Z,35.1
2018-07-02T06:26:37.277Z,35.1
2018-07-02T06:27:48.391Z,35.1
2018-07-02T06:28:45.027Z,35.1
2018-07-02T06:29:42.840Z,35.1
2018-07-02T06:30:40.667Z,35.1
2018-07-02T06:31:43.137Z,35.2
2018-07-02T06:32:40.474Z,35.1
2018-07-02T06:33:45.023Z,35.2
2018-07-02T06:34:39.726Z,35.2
2018-07-02T06:35:37.999Z,35.2
2018-07-02T06:36:36.192Z,35.2
2018-07-02T06:37:36.456Z,35.2
2018-07-02T06:38:30.921Z,35.2
2018-07-02T06:39:32.563Z,35
2018-07-02T06:40:31.975Z,35.1
2018-07-02T06:41:30.575Z,35.2
2018-07-02T06:42:31.566Z,35.2
2018-07-02T06:43:45.811Z,35.1
2018-07-02T06:44:40.290Z,35.1
2018-07-02T06:45:39.694Z,35.1
2018-07-02T06:46:38.374Z,35.1
2018-07-02T06:47:37.576Z,35.1
2018-07-02T06:48:38.661Z,35
2018-07-02T06:49:35.900Z,35
2018-07-02T06:50:41.645Z,35.1
2018-07-02T06:51:39.789Z,35.1
2018-07-02T06:52:45.124Z,35.1
2018-07-02T06:53:45.402Z,35.1
2018-07-02T06:54:45.281Z,35.2
2018-07-02T06:55:45.056Z,35
2018-07-02T06:56:39.638Z,35
2018-07-02T06:57:49.508Z,35
2018-07-02T06:58:46.717Z,35
2018-07-02T06:59:56.969Z,35
2018-07-02T07:00:55.116Z,35
2018-07-02T07:01:55.064Z,35
2018-07-02T07:02:56.761Z,35
2018-07-02T07:03:57.764Z,35
2018-07-02T07:04:53.001Z,34.9
2018-07-02T07:05:52.780Z,34.9
2018-07-02T07:06:56.998Z,34.9
2018-07-02T07:07:56.974Z,34.9
2018-07-02T07:08:55.461Z,34.9
2018-07-02T07:10:07.463Z,35.1
2018-07-02T07:11:06.481Z,34.9
2018-07-02T07:12:01.555Z,35.1
2018-07-02T07:13:02.254Z,35.1
2018-07-02T07:14:02.667Z,35
2018-07-02T07:15:08.505Z,35
2018-07-02T07:16:06.797Z,35
2018-07-02T07:17:07.630Z,34.9
2018-07-02T07:18:06.628Z,34.9
2018-07-02T07:19:22.102Z,34.8
2018-07-02T07:20:19.513Z,34.9
2018-07-02T07:21:18.581Z,34.9
2018-07-02T07:22:21.841Z,34.9
2018-07-02T07:23:25.249Z,34.9
2018-07-02T07:24:22.880Z,35.1
2018-07-02T07:25:18.531Z,35
2018-07-02T07:26:30.694Z,35
2018-07-02T07:27:26.757Z,35
2018-07-02T07:28:24.895Z,35
2018-07-02T07:29:26.927Z,34.9
2018-07-02T07:30:25.643Z,34.9
2018-07-02T07:31:25.124Z,34.9
2018-07-02T07:32:23.324Z,34.9
2018-07-02T07:33:28.566Z,34.9
2018-07-02T07:34:22.357Z,34.9
2018-07-02T07:35:25.622Z,34.8
2018-07-02T07:36:24.851Z,34.7
2018-07-02T07:37:23.699Z,34.7
2018-07-02T07:38:27.377Z,34.7
2018-07-02T07:39:26.311Z,34.9
2018-07-02T07:40:24.440Z,34.7
2018-07-02T07:41:25.709Z,34.7
2018-07-02T07:42:37.016Z,34.7
2018-07-02T07:43:33.599Z,34.7
2018-07-02T07:44:32.817Z,34.7
2018-07-02T07:45:30.822Z,34.7
2018-07-02T07:46:33.545Z,34.7
2018-07-02T07:47:32.794Z,34.7
2018-07-02T07:48:30.558Z,34.6
2018-07-02T07:49:28.942Z,34.6
2018-07-02T07:50:26.680Z,34.5
2018-07-02T07:51:28.845Z,34.5
2018-07-02T07:52:31.655Z,34.5
2018-07-02T07:53:29.424Z,34.5
2018-07-02T07:54:33.761Z,34.7
2018-07-02T07:55:32.688Z,34.5
2018-07-02T07:56:30.423Z,34.5
2018-07-02T07:57:44.052Z,34.4
2018-07-02T07:58:37.805Z,34.4
2018-07-02T07:59:36.168Z,34.4
2018-07-02T08:00:34.855Z,34.4
2018-07-02T08:01:36.195Z,34.4
2018-07-02T08:02:37.268Z,34.3
2018-07-02T08:03:37.301Z,34.4
2018-07-02T08:04:37.316Z,34.4
2018-07-02T08:05:37.989Z,34.3
2018-07-02T08:06:38.900Z,34.3
2018-07-02T08:06:57.547Z,34.3
2018-07-02T08:07:58.698Z,34.3
2018-07-02T08:08:54.812Z,34.3
2018-07-02T08:09:55.173Z,34.3
2018-07-02T08:10:54.137Z,34.3
2018-07-02T08:11:53.758Z,34.3
2018-07-02T08:12:56.820Z,34.3
2018-07-02T08:13:55.381Z,34.2
2018-07-02T08:14:56.918Z,34.2
2018-07-02T08:15:58.222Z,34.2
2018-07-02T08:16:56.494Z,34.2
2018-07-02T08:17:54.340Z,34.2
2018-07-02T08:19:06.567Z,34.2
2018-07-02T08:20:08.496Z,34.2
2018-07-02T08:21:07.266Z,34.2
2018-07-02T08:22:04.766Z,34.2
2018-07-02T08:23:06.687Z,34.2
2018-07-02T08:24:05.610Z,34.2
2018-07-02T08:25:04.650Z,34.2
2018-07-02T08:26:03.349Z,34.2
2018-07-02T08:27:04.251Z,34.1
2018-07-02T08:28:03.115Z,34.1
2018-07-02T08:29:01.871Z,34.1
2018-07-02T08:29:59.273Z,34.1
2018-07-02T08:30:59.306Z,34.1
2018-07-02T08:32:04.948Z,34.1
2018-07-02T08:33:05.343Z,34.1
2018-07-02T08:34:05.605Z,34.1
2018-07-02T08:35:07.135Z,34.1
2018-07-02T08:36:06.040Z,34.1
2018-07-02T08:37:15.642Z,34.1
2018-07-02T08:38:10.583Z,34
2018-07-02T08:39:16.031Z,34
2018-07-02T08:40:14.882Z,34
2018-07-02T08:41:17.662Z,34
2018-07-02T08:42:16.762Z,34
2018-07-02T08:43:14.417Z,34
2018-07-02T08:44:14.063Z,34
2018-07-02T08:45:13.101Z,34
2018-07-02T08:46:16.486Z,34
2018-07-02T08:47:16.169Z,34
2018-07-02T08:48:22.828Z,34
2018-07-02T08:49:17.942Z,34
2018-07-02T08:50:15.810Z,34
2018-07-02T08:51:18.093Z,34
2018-07-02T08:52:29.975Z,34
2018-07-02T08:53:27.521Z,34
2018-07-02T08:54:27.868Z,33.9
2018-07-02T08:55:29.204Z,34
2018-07-02T08:56:40.427Z,33.9
2018-07-02T08:57:41.738Z,33.9
2018-07-02T08:58:47.445Z,33.9
2018-07-02T08:59:47.403Z,33.9
2018-07-02T09:00:45.032Z,33.9
2018-07-02T09:01:42.809Z,33.9
2018-07-02T09:02:41.006Z,33.9
2018-07-02T09:03:38.737Z,33.9
2018-07-02T09:04:43.231Z,33.9
2018-07-02T09:05:43.503Z,33.9
2018-07-02T09:06:57.608Z,34
2018-07-02T09:07:51.504Z,33.9
2018-07-02T09:08:49.656Z,33.9
2018-07-02T09:09:58.172Z,33.8
2018-07-02T09:10:58.444Z,33.9
2018-07-02T09:11:57.631Z,33.9
2018-07-02T09:12:58.979Z,33.8
2018-07-02T09:14:02.954Z,33.8
2018-07-02T09:15:02.021Z,33.8
2018-07-02T09:16:05.725Z,33.8
2018-07-02T09:17:06.990Z,32.6
2018-07-02T09:18:11.674Z,31.4
2018-07-02T09:19:09.672Z,30.9
2018-07-02T09:20:18.597Z,30.8
2018-07-02T09:21:16.412Z,31.1
2018-07-02T09:22:14.395Z,31.3
2018-07-02T09:23:27.509Z,31.9
2018-07-02T09:24:24.971Z,31.7
2018-07-02T09:25:22.804Z,32.1
2018-07-02T09:26:22.410Z,32
2018-07-02T09:27:20.209Z,31.8
2018-07-02T09:28:19.964Z,31.8
2018-07-02T09:29:17.577Z,31.2
2018-07-02T09:30:15.039Z,31.3
2018-07-02T09:31:12.801Z,31.3
2018-07-02T09:32:11.176Z,31.5
2018-07-02T09:33:10.042Z,31.5
2018-07-02T09:34:09.788Z,31
2018-07-02T09:35:31.482Z,30.4
2018-07-02T09:36:18.590Z,30.5
2018-07-02T09:37:18.057Z,30.2
2018-07-02T09:38:16.341Z,30.4
2018-07-02T09:39:16.465Z,30.2
2018-07-02T09:40:14.105Z,29.7
2018-07-02T09:41:21.413Z,29.6
2018-07-02T09:42:20.881Z,30.1
2018-07-02T09:43:18.641Z,30.4
2018-07-02T09:44:17.480Z,30.5
2018-07-02T09:45:17.497Z,29.7
2018-07-02T09:46:18.996Z,28.9
2018-07-02T09:47:18.997Z,28.9
2018-07-02T09:48:16.740Z,29.1
2018-07-02T09:49:15.868Z,29
2018-07-02T09:50:15.796Z,28.9
2018-07-02T09:51:33.427Z,29.1
2018-07-02T09:52:28.547Z,28.8
2018-07-02T09:53:27.338Z,28.6
2018-07-02T09:54:25.785Z,28.7
2018-07-02T09:55:25.878Z,28.7
2018-07-02T09:56:25.330Z,28.2
2018-07-02T09:57:23.994Z,28.1
2018-07-02T09:58:22.241Z,28
2018-07-02T09:59:22.341Z,27.9
2018-07-02T10:00:24.431Z,27.9
2018-07-02T10:01:23.057Z,28.3
2018-07-02T10:02:25.312Z,28.8
2018-07-02T10:03:26.317Z,29.4
2018-07-02T10:04:27.146Z,29.4
2018-07-02T10:05:24.761Z,28.4
2018-07-02T10:06:34.565Z,27.7
2018-07-02T10:07:31.580Z,28.3
2018-07-02T10:08:33.736Z,28.2
2018-07-02T10:09:32.807Z,28.6
2018-07-02T10:10:30.338Z,28.4
2018-07-02T10:11:28.868Z,28.2
2018-07-02T10:12:30.656Z,28.4
2018-07-02T10:13:29.831Z,28.2
2018-07-02T10:14:32.752Z,28.4
2018-07-02T10:15:34.377Z,28.8
2018-07-02T10:16:32.522Z,28.6
2018-07-02T10:17:33.698Z,28.7
2018-07-02T10:18:32.711Z,28.8
2018-07-02T10:19:30.696Z,29.2
2018-07-02T10:20:33.032Z,29.6
2018-07-02T10:21:31.279Z,29.6
2018-07-02T10:22:32.093Z,29.7
2018-07-02T10:23:26.828Z,29.1
2018-07-02T10:24:26.375Z,27.6
2018-07-02T10:25:26.337Z,28.1
2018-07-02T10:26:28.740Z,27.9
2018-07-02T10:27:40.608Z,28.4
2018-07-02T10:28:40.502Z,28.5
2018-07-02T10:29:38.200Z,28.3
2018-07-02T10:30:35.940Z,28.9
2018-07-02T10:31:42.201Z,29.5
2018-07-02T10:32:39.869Z,29.8
2018-07-02T10:33:37.731Z,30.2
2018-07-02T10:34:36.731Z,30.3
2018-07-02T10:35:39.887Z,30.5
2018-07-02T10:36:35.742Z,30.7
2018-07-02T10:37:36.929Z,30.8
2018-07-02T10:38:38.699Z,30.7
2018-07-02T10:39:38.717Z,30.6
2018-07-02T10:40:36.415Z,30.8
2018-07-02T10:41:52.177Z,30.9
2018-07-02T10:42:47.270Z,31
2018-07-02T10:43:45.949Z,31.1
2018-07-02T10:44:47.595Z,31.3
2018-07-02T10:45:46.052Z,31.4
2018-07-02T10:46:47.722Z,31.5
2018-07-02T10:47:52.562Z,31.5
2018-07-02T10:48:54.110Z,31.5
2018-07-02T10:49:51.834Z,31.7
2018-07-02T10:50:57.344Z,31.7
2018-07-02T10:52:02.269Z,31.7
2018-07-02T10:53:00.608Z,31.9
2018-07-02T10:54:00.640Z,32
2018-07-02T10:54:59.001Z,32
2018-07-02T10:56:02.143Z,32
2018-07-02T10:57:03.218Z,32.2
2018-07-02T10:57:58.305Z,32.2
2018-07-02T10:59:01.691Z,32.2
2018-07-02T11:00:04.772Z,32.4
2018-07-02T11:01:05.376Z,32.5
2018-07-02T11:02:03.290Z,32.5
2018-07-02T11:03:23.904Z,32.7
2018-07-02T11:04:21.685Z,32.9
2018-07-02T11:05:23.064Z,32.9
2018-07-02T11:06:20.648Z,33
2018-07-02T11:07:19.265Z,32.9
2018-07-02T11:08:16.988Z,32.9
2018-07-02T11:09:14.775Z,33
2018-07-02T11:10:21.282Z,33.1
2018-07-02T11:11:18.974Z,33.1
2018-07-02T11:12:18.744Z,33.2
2018-07-02T11:13:17.304Z,33.3
2018-07-02T11:14:20.960Z,33.3
2018-07-02T11:15:17.521Z,33.4
2018-07-02T11:16:20.466Z,33.4
2018-07-02T11:17:23.620Z,33.5
2018-07-02T11:18:29.441Z,33.6
2018-07-02T11:19:31.793Z,33.7
2018-07-02T11:20:32.660Z,33.8
2018-07-02T11:21:30.971Z,33.7
2018-07-02T11:22:34.125Z,33.7
2018-07-02T11:23:32.917Z,33.8
2018-07-02T11:24:49.402Z,33.7
2018-07-02T11:25:41.534Z,33.7
2018-07-02T11:26:42.559Z,33.8
2018-07-02T11:27:37.682Z,33.8
2018-07-02T11:28:35.289Z,33.9
2018-07-02T11:29:41.916Z,33.9
2018-07-02T11:30:38.317Z,33.9
2018-07-02T11:31:36.866Z,33.9
2018-07-02T11:32:36.749Z,33.8
2018-07-02T11:33:35.096Z,33.7
2018-07-02T11:34:34.159Z,33.7
2018-07-02T11:35:34.520Z,33.7
2018-07-02T11:36:33.640Z,33.7
2018-07-02T11:37:48.961Z,33.6
2018-07-02T11:38:43.673Z,33.7
2018-07-02T11:39:41.568Z,33.9
2018-07-02T11:40:41.569Z,33.7
2018-07-02T11:41:39.376Z,33.7
2018-07-02T11:42:37.600Z,33.6
2018-07-02T11:43:35.048Z,33.6
2018-07-02T11:44:35.195Z,33.6
2018-07-02T11:45:33.414Z,33.7
2018-07-02T11:46:30.766Z,33.8
2018-07-02T11:47:28.062Z,33.6
2018-07-02T11:48:29.013Z,33.6
2018-07-02T11:49:27.314Z,33.6
2018-07-02T11:50:33.894Z,33.6
2018-07-02T11:51:36.624Z,33.8
2018-07-02T11:52:43.711Z,33.8
2018-07-02T11:53:43.855Z,33.7
2018-07-02T11:54:44.081Z,33.9
2018-07-02T11:55:41.932Z,33.7
2018-07-02T11:56:52.435Z,33.8
2018-07-02T11:57:51.988Z,33.6
2018-07-02T11:58:53.999Z,33.6
2018-07-02T11:59:54.578Z,33.6
2018-07-02T12:01:02.443Z,33.6
2018-07-02T12:02:08.965Z,33.6
2018-07-02T12:03:09.623Z,33.6
2018-07-02T12:04:06.995Z,33.6
2018-07-02T12:05:12.152Z,33.6
2018-07-02T12:06:11.994Z,33.6
2018-07-02T12:07:22.256Z,33.6
2018-07-02T12:08:21.825Z,33.6
2018-07-02T12:09:24.010Z,33.6
2018-07-02T12:10:23.616Z,33.6
2018-07-02T12:11:27.530Z,33.6
2018-07-02T12:12:25.263Z,33.6
2018-07-02T12:13:23.413Z,30.5
2018-07-02T12:14:27.460Z,29.1
2018-07-02T12:15:38.714Z,27.3
2018-07-02T12:16:31.581Z,26.2
2018-07-02T12:17:31.885Z,25.5
2018-07-02T12:18:32.321Z,26.2
2018-07-02T12:19:34.708Z,25.3
2018-07-02T12:20:33.439Z,25.5
2018-07-02T12:21:34.105Z,25.5
2018-07-02T12:22:37.881Z,25.5
2018-07-02T12:23:37.649Z,25.4
2018-07-02T12:24:40.022Z,25.5
2018-07-02T12:25:37.547Z,25.4
2018-07-02T12:26:41.036Z,25.9
2018-07-02T12:27:39.180Z,26.3
2018-07-02T12:28:37.268Z,26.4
2018-07-02T12:29:41.779Z,25.4
2018-07-02T12:30:40.381Z,25.4
2018-07-02T12:31:59.333Z,25.4
2018-07-02T12:32:51.615Z,25.9
2018-07-02T12:33:52.006Z,25.5
2018-07-02T12:34:53.026Z,25.4
2018-07-02T12:35:53.770Z,24.6
2018-07-02T12:36:53.848Z,24.6
2018-07-02T12:37:52.692Z,24.8
2018-07-02T12:38:49.861Z,25.5
2018-07-02T12:39:49.192Z,25.1
2018-07-02T12:40:51.536Z,25.5
2018-07-02T12:41:55.169Z,25.4
2018-07-02T12:42:58.653Z,26.5
2018-07-02T12:44:06.595Z,26.8
2018-07-02T12:45:00.498Z,27.1
2018-07-02T12:46:14.695Z,27.2
2018-07-02T12:47:06.988Z,27.4
2018-07-02T12:48:05.050Z,27.7
2018-07-02T12:49:03.804Z,27.9
2018-07-02T12:50:08.331Z,28
2018-07-02T12:51:05.413Z,28
2018-07-02T12:52:08.796Z,28.1
2018-07-02T12:53:03.046Z,28
2018-07-02T12:54:06.649Z,28.1
2018-07-02T12:55:05.618Z,28.2
2018-07-02T12:56:08.591Z,28.5
2018-07-02T12:57:08.617Z,28.6
2018-07-02T12:58:03.314Z,28.6
2018-07-02T12:59:05.019Z,28.7
2018-07-02T13:00:02.956Z,28.7
2018-07-02T13:01:04.337Z,28.7
2018-07-02T13:02:15.058Z,28.8
2018-07-02T13:03:09.206Z,28.8
2018-07-02T13:04:10.268Z,28.9
2018-07-02T13:05:08.842Z,29
2018-07-02T13:06:07.796Z,29
2018-07-02T13:07:05.656Z,29
2018-07-02T13:08:03.365Z,29.1
2018-07-02T13:09:08.828Z,29
2018-07-02T13:10:08.959Z,29
2018-07-02T13:11:08.829Z,29.1
2018-07-02T13:12:06.379Z,29.1
2018-07-02T13:13:05.624Z,29.1
2018-07-02T13:14:05.419Z,29.1
2018-07-02T13:15:05.649Z,29.2
2018-07-02T13:16:03.183Z,29.2
2018-07-02T13:17:00.557Z,29.2
2018-07-02T13:18:09.159Z,29.2
2018-07-02T13:19:04.122Z,29.2
2018-07-02T13:20:02.694Z,29.2
2018-07-02T13:21:00.390Z,29.2
2018-07-02T13:22:07.563Z,29.2
2018-07-02T13:23:07.652Z,29.2
2018-07-02T13:24:09.144Z,29.1
2018-07-02T13:25:09.878Z,28.5
2018-07-02T13:26:08.399Z,28.4
2018-07-02T13:27:06.963Z,28.5
2018-07-02T13:28:07.290Z,28.7
2018-07-02T13:29:05.213Z,28.8
2018-07-02T13:30:06.066Z,28.8
2018-07-02T13:31:03.432Z,28.9
2018-07-02T13:32:04.390Z,28.9
2018-07-02T13:33:02.292Z,28.9
2018-07-02T13:34:11.426Z,29
2018-07-02T13:35:13.176Z,29